Flight Track Log - Related Links

Times and Time Zones

All times are in EDT time to prevent confusion due to time zone crossing. See the JZA8476 flight status page for this flight to view local times or setup timezone preferences in your user account.

Time Position Orientation Groundspeed Altitude Reporting Facility
EDT Latitude Longitude Course Direction KTS MPH feet Rate Location/Type
Sun 11:03:14 AM 55.1333 -118.9167 142° Southeast 120 138 2,700  Level Edmonton Center
Sun 11:04:14 AM 55.1167 -118.8667 120° Southeast 130 150 3,900 1,000 Climbing Edmonton Center
Sun 11:05:14 AM 55.0833 -118.8333 150° Southeast 160 184 4,700 950 Climbing Edmonton Center
Sun 11:06:14 AM 55.0333 -118.7833 150° Southeast 180 207 5,800 1,100 Climbing Edmonton Center
Sun 11:07:14 AM 55.0000 -118.7333 139° Southeast 180 207 6,900 1,100 Climbing Edmonton Center
Sun 11:08:00 AM 54.8514 -118.4464 142° Southeast  Level Estimated
Sun 11:08:14 AM 54.9667 -118.6667 131° Southeast 190 219 8,000  Level Edmonton Center
Sun 11:09:14 AM 54.9167 -118.6167 150° Southeast 190 219 9,100 1,000 Climbing Edmonton Center
Sun 11:10:14 AM 54.8667 -118.5667 150° Southeast 190 219 10,000 950 Climbing Edmonton Center
Sun 11:11:14 AM 54.8333 -118.5000 131° Southeast 200 230 11,000 1,000 Climbing Edmonton Center
Sun 11:12:14 AM 54.7833 -118.4500 150° Southeast 200 230 12,000 950 Climbing Edmonton Center
Sun 11:13:14 AM 54.7333 -118.4000 150° Southeast 200 230 12,900 800 Climbing Edmonton Center
Sun 11:14:14 AM 54.6833 -118.3333 142° Southeast 200 230 13,600 800 Climbing Edmonton Center
Sun 11:15:14 AM 54.6333 -118.2833 150° Southeast 210 242 14,500 800 Climbing Edmonton Center
Sun 11:16:14 AM 54.5833 -118.2000 136° Southeast 220 253 15,200 750 Climbing Edmonton Center
Sun 11:17:14 AM 54.5333 -118.1667 159° South 220 253 16,000 700 Climbing Edmonton Center
Sun 11:18:14 AM 54.5000 -118.0833 125° Southeast 220 253 16,600 650 Climbing Edmonton Center
Sun 11:19:14 AM 54.4333 -118.0333 156° South 220 253 17,300 700 Climbing Edmonton Center
Sun 11:20:14 AM 54.3833 -117.9667 142° Southeast 220 253 18,000 600 Climbing Edmonton Center
Sun 11:21:14 AM 54.3333 -117.9167 150° Southeast 220 253 18,500 500 Climbing Edmonton Center
Sun 11:22:14 AM 54.2833 -117.8333 136° Southeast 230 265 19,000 500 Climbing Edmonton Center
Sun 11:23:14 AM 54.2333 -117.7667 142° Southeast 230 265 19,500 550 Climbing Edmonton Center
Sun 11:24:14 AM 54.1833 -117.7167 150° Southeast 230 265 20,100 550 Climbing Edmonton Center
Sun 11:25:14 AM 54.1333 -117.6500 142° Southeast 230 265 20,600 600 Climbing Edmonton Center
Sun 11:26:14 AM 54.0667 -117.6000 156° South 230 265 21,300 600 Climbing Edmonton Center
Sun 11:27:14 AM 54.0333 -117.5167 124° Southeast 220 253 21,800 500 Climbing Edmonton Center
Sun 11:28:14 AM 53.9667 -117.4667 156° South 220 253 22,300 450 Climbing Edmonton Center
Sun 11:29:14 AM 53.9167 -117.4000 142° Southeast 220 253 22,700 350 Climbing Edmonton Center
Sun 11:30:14 AM 53.8667 -117.3500 149° Southeast 220 253 23,000 150 Climbing Edmonton Center
Sun 11:31:14 AM 53.8167 -117.2833 142° Southeast 230 265 23,000  Level Edmonton Center
Sun 11:32:14 AM 53.7500 -117.2000 144° Southeast 250 288 23,000  Level Edmonton Center
Sun 11:33:14 AM 53.7000 -117.1667 158° South 250 288 23,000  Level Edmonton Center
Sun 11:34:14 AM 53.6500 -117.0833 135° Southeast 260 299 23,000  Level Edmonton Center
Sun 11:35:14 AM 53.5833 -117.0167 149° Southeast 260 299 23,000  Level Edmonton Center
Sun 11:36:14 AM 53.5167 -116.9333 143° Southeast 260 299 23,000  Level Edmonton Center
Sun 11:37:14 AM 53.4667 -116.8500 135° Southeast 260 299 23,000  Level Edmonton Center
Sun 11:38:14 AM 53.4000 -116.7833 149° Southeast 260 299 23,000  Level Edmonton Center
Sun 11:39:14 AM 53.3333 -116.7333 156° South 270 311 23,000  Level Edmonton Center
Sun 11:40:14 AM 53.2833 -116.6667 141° Southeast 270 311 23,000  Level Edmonton Center
Sun 11:41:14 AM 53.2167 -116.5833 143° Southeast 270 311 23,000  Level Edmonton Center
Sun 11:42:14 AM 53.1500 -116.5167 149° Southeast 270 311 23,000  Level Edmonton Center
Sun 11:43:14 AM 53.0833 -116.4333 143° Southeast 270 311 23,000  Level Edmonton Center
Sun 11:44:14 AM 53.0167 -116.3667 149° Southeast 270 311 23,000  Level Edmonton Center
Sun 11:45:14 AM 52.9667 -116.3167 149° Southeast 260 299 23,000  Level Edmonton Center
Sun 11:46:14 AM 52.9000 -116.2333 143° Southeast 270 311 23,000  Level Edmonton Center
Sun 11:47:14 AM 52.8500 -116.1667 141° Southeast 260 299 23,000  Level Edmonton Center
Sun 11:48:14 AM 52.7667 -116.1000 154° Southeast 270 311 23,000  Level Edmonton Center
Sun 11:49:14 AM 52.7333 -116.0167 123° Southeast 270 311 23,000  Level Edmonton Center
Sun 11:50:14 AM 52.6500 -115.9500 154° Southeast 260 299 23,000  Level Edmonton Center
Sun 11:51:14 AM 52.5833 -115.8833 149° Southeast 270 311 23,000  Level Edmonton Center
Sun 11:52:14 AM 52.5333 -115.8000 135° Southeast 270 311 23,000  Level Edmonton Center
Sun 11:53:14 AM 52.4667 -115.7667 163° South 270 311 23,000  Level Edmonton Center
Sun 11:54:14 AM 52.4000 -115.6833 143° Southeast 260 299 23,000  Level Edmonton Center
Sun 11:55:14 AM 52.3333 -115.6167 149° Southeast 270 311 23,000  Level Edmonton Center
Sun 11:56:14 AM 52.2833 -115.5500 141° Southeast 260 299 23,000  Level Edmonton Center
Sun 11:57:14 AM 52.2167 -115.4667 143° Southeast 260 299 23,000  Level Edmonton Center
Sun 11:58:14 AM 52.1500 -115.4000 148° Southeast 260 299 23,000  Level Edmonton Center
Sun 11:59:14 AM 52.1000 -115.3500 148° Southeast 260 299 23,000 -650 Level Edmonton Center
Sun 12:00:14 PM 52.0333 -115.2833 148° Southeast 280 322 21,700 -1,300 Descending Edmonton Center
Sun 12:01:14 PM 51.9500 -115.1833 143° Southeast 300 345 20,400 -1,300 Descending Edmonton Center
Sun 12:02:14 PM 51.9000 -115.1167 141° Southeast 300 345 19,100 -1,350 Descending Edmonton Center
Sun 12:03:14 PM 51.8167 -115.0500 154° Southeast 300 345 17,700 -1,300 Descending Edmonton Center
Sun 12:04:14 PM 51.7500 -114.9667 142° Southeast 300 345 16,500 -1,350 Descending Edmonton Center
Sun 12:05:14 PM 51.6667 -114.9000 154° Southeast 300 345 15,000 -1,350 Descending Edmonton Center
Sun 12:06:14 PM 51.6167 -114.8333 140° Southeast 300 345 13,800 -1,300 Descending Edmonton Center
Sun 12:07:14 PM 51.5500 -114.7333 137° Southeast 300 345 12,400 -1,400 Descending Edmonton Center
Sun 12:08:14 PM 51.5000 -114.6333 129° Southeast 300 345 11,000 -1,100 Descending Edmonton Center
Sun 12:09:14 PM 51.4333 -114.5500 142° Southeast 290 334 10,200 -500 Descending Edmonton Center
Sun 12:10:14 PM 51.3833 -114.4500 129° Southeast 280 322 10,000 -100 Descending Edmonton Center
Sun 12:11:14 PM 51.3333 -114.3500 129° Southeast 270 311 10,000  Level Edmonton Center
Sun 12:12:14 PM 51.2833 -114.2667 134° Southeast 270 311 10,000  Level Edmonton Center
Sun 12:13:14 PM 51.2167 -114.2000 148° Southeast 260 299 10,000  Level Edmonton Center
Sun 12:14:14 PM 51.1500 -114.2167 189° South 260 299 10,000 -50 Level Edmonton Center
Sun 12:15:14 PM 51.0833 -114.2000 171° South 250 288 9,900 -1,050 Descending Edmonton Center
Sun 12:16:14 PM 51.0167 -114.1833 171° South 220 253 7,900 -1,900 Descending Edmonton Center
Sun 12:17:14 PM 50.9500 -114.1667 171° South 220 253 6,100 -1,050 Descending Edmonton Center
Sun 12:18:14 PM 50.9667 -114.1167 62° Northeast 180 207 5,800 -500 Descending Edmonton Center
Sun 12:20:14 PM 51.0167 -114.0500 40° Northeast 120 138 4,600 -633 Descending Edmonton Center
Sun 12:21:14 PM 51.0500 -114.0500 360° North 130 150 3,900 -500 Descending Edmonton Center
Sun 12:22:14 PM 51.0833 -114.0333 17° North 120 138 3,600 -300 Descending Edmonton Center

Login

Don't have an account? Register now (free) for customized features, flight alerts, and more!